createdAt,value
2022-10-16T00:01:16.419Z,14.09
2022-10-16T00:03:44.109Z,14.08
2022-10-16T00:06:11.606Z,14.14
2022-10-16T00:08:38.645Z,14.03
2022-10-16T00:11:10.058Z,14.02
2022-10-16T00:13:38.110Z,13.92
2022-10-16T00:16:05.093Z,13.97
2022-10-16T00:18:31.928Z,14.01
2022-10-16T00:21:09.275Z,13.97
2022-10-16T00:23:36.746Z,13.97
2022-10-16T00:26:06.225Z,14.03
2022-10-16T00:28:33.084Z,14.05
2022-10-16T00:30:59.822Z,13.90
2022-10-16T00:33:26.198Z,13.92
2022-10-16T00:35:52.618Z,13.86
2022-10-16T00:38:19.026Z,13.86
2022-10-16T00:40:45.473Z,13.94
2022-10-16T00:43:34.866Z,14.04
2022-10-16T00:46:03.207Z,14.01
2022-10-16T00:48:30.054Z,14.05
2022-10-16T00:50:57.740Z,14.03
2022-10-16T00:53:26.088Z,14.05
2022-10-16T00:55:52.992Z,14.05
2022-10-16T00:58:19.413Z,14.00
2022-10-16T01:00:45.844Z,14.06
2022-10-16T01:03:30.654Z,14.12
2022-10-16T01:06:09.257Z,14.07
2022-10-16T01:09:01.129Z,14.10
2022-10-16T01:11:42.657Z,14.13
2022-10-16T01:14:22.877Z,14.10
2022-10-16T01:17:14.930Z,14.10
2022-10-16T01:20:05.875Z,14.13
2022-10-16T01:22:42.137Z,14.16
2022-10-16T01:25:17.793Z,14.03
2022-10-16T01:27:46.759Z,14.05
2022-10-16T01:30:22.293Z,14.03
2022-10-16T01:33:04.529Z,13.97
2022-10-16T01:35:37.003Z,14.05
2022-10-16T01:38:22.189Z,14.07
2022-10-16T01:40:53.150Z,14.06
2022-10-16T01:43:28.293Z,14.01
2022-10-16T01:45:55.722Z,13.99
2022-10-16T01:48:24.755Z,13.95
2022-10-16T01:51:07.759Z,13.99
2022-10-16T01:53:34.576Z,13.97
2022-10-16T01:56:03.086Z,13.95
2022-10-16T01:58:35.450Z,14.00
2022-10-16T02:01:05.282Z,13.95
2022-10-16T02:03:34.283Z,14.00
2022-10-16T02:06:00.927Z,14.03
2022-10-16T02:08:30.530Z,14.05
2022-10-16T02:10:58.382Z,14.11
2022-10-16T02:13:32.337Z,14.12
2022-10-16T02:15:58.792Z,14.05
2022-10-16T02:18:30.026Z,14.10
2022-10-16T02:20:59.205Z,14.07
2022-10-16T02:23:36.840Z,14.08
2022-10-16T02:26:07.872Z,14.09
2022-10-16T02:28:45.131Z,14.07
2022-10-16T02:31:17.324Z,14.03
2022-10-16T02:33:46.742Z,14.05
2022-10-16T02:36:13.893Z,14.12
2022-10-16T02:38:41.216Z,14.05
2022-10-16T02:41:07.727Z,14.07
2022-10-16T02:43:34.828Z,14.07
2022-10-16T02:46:01.662Z,14.05
2022-10-16T02:48:28.054Z,14.06
2022-10-16T02:50:54.429Z,14.02
2022-10-16T02:53:20.843Z,14.05
2022-10-16T02:55:47.213Z,14.07
2022-10-16T02:58:13.558Z,14.09
2022-10-16T03:00:40.148Z,14.08
2022-10-16T03:03:06.598Z,14.10
2022-10-16T03:05:32.994Z,14.14
2022-10-16T03:08:01.554Z,14.07
2022-10-16T03:10:28.380Z,14.13
2022-10-16T03:12:54.729Z,14.14
2022-10-16T03:15:21.167Z,14.13
2022-10-16T03:17:47.568Z,14.20
2022-10-16T03:20:14.246Z,14.21
2022-10-16T03:22:40.633Z,14.17
2022-10-16T03:25:07.545Z,13.98
2022-10-16T03:27:33.913Z,13.99
2022-10-16T03:30:00.277Z,13.97
2022-10-16T03:32:26.762Z,13.99
2022-10-16T03:34:55.138Z,13.99
2022-10-16T03:37:21.532Z,13.99
2022-10-16T03:39:47.910Z,13.94
2022-10-16T03:42:14.302Z,14.04
2022-10-16T03:44:40.678Z,14.00
2022-10-16T03:47:07.058Z,14.01
2022-10-16T03:49:33.438Z,13.98
2022-10-16T03:51:59.814Z,14.03
2022-10-16T03:54:26.243Z,14.03
2022-10-16T03:56:52.594Z,13.94
2022-10-16T03:59:18.979Z,14.03
2022-10-16T04:01:45.405Z,14.04
2022-10-16T04:04:11.818Z,13.99
2022-10-16T04:06:38.309Z,13.97
2022-10-16T04:09:04.825Z,13.98
2022-10-16T04:11:31.208Z,13.93
2022-10-16T04:13:57.560Z,13.88
2022-10-16T04:16:23.951Z,13.95
2022-10-16T04:18:50.415Z,13.94
2022-10-16T04:21:16.839Z,13.91
2022-10-16T04:23:43.928Z,13.95
2022-10-16T04:26:11.381Z,13.91
2022-10-16T04:28:37.895Z,13.91
2022-10-16T04:31:05.580Z,13.95
2022-10-16T04:33:32.022Z,13.95
2022-10-16T04:35:59.821Z,13.95
2022-10-16T04:38:26.548Z,13.91
2022-10-16T04:40:53.320Z,13.86
2022-10-16T04:43:20.461Z,13.91
2022-10-16T04:45:47.032Z,13.81
2022-10-16T04:48:13.507Z,13.93
2022-10-16T04:50:39.927Z,13.82
2022-10-16T04:53:08.102Z,13.84
2022-10-16T04:55:34.576Z,13.88
2022-10-16T04:58:00.972Z,13.78
2022-10-16T05:00:27.729Z,13.86
2022-10-16T05:02:54.224Z,13.87
2022-10-16T05:05:20.799Z,13.89
2022-10-16T05:07:48.491Z,13.74
2022-10-16T05:10:14.932Z,13.85
2022-10-16T05:12:41.347Z,13.84
2022-10-16T05:15:08.310Z,13.89
2022-10-16T05:17:34.762Z,13.88
2022-10-16T05:20:01.208Z,13.86
2022-10-16T05:22:27.623Z,13.92
2022-10-16T05:24:54.014Z,13.82
2022-10-16T05:27:20.948Z,13.85
2022-10-16T05:29:48.768Z,13.88
2022-10-16T05:32:16.741Z,13.89
2022-10-16T05:34:43.519Z,13.86
2022-10-16T05:37:10.485Z,13.85
2022-10-16T05:39:37.818Z,13.76
2022-10-16T05:42:05.167Z,13.82
2022-10-16T05:44:31.668Z,13.80
2022-10-16T05:46:58.353Z,13.83
2022-10-16T05:49:24.823Z,13.73
2022-10-16T05:51:51.195Z,13.74
2022-10-16T05:54:17.971Z,13.75
2022-10-16T05:56:44.430Z,13.77
2022-10-16T05:59:10.810Z,13.75
2022-10-16T06:01:37.198Z,13.72
2022-10-16T06:04:03.946Z,13.77
2022-10-16T06:06:31.761Z,13.79
2022-10-16T06:08:58.800Z,13.65
2022-10-16T06:11:31.120Z,13.77
2022-10-16T06:13:59.841Z,13.85
2022-10-16T06:16:27.236Z,13.83
2022-10-16T06:18:55.237Z,13.84
2022-10-16T06:21:25.661Z,13.81
2022-10-16T06:23:53.411Z,13.86
2022-10-16T06:26:22.346Z,13.87
2022-10-16T06:28:49.823Z,13.89
2022-10-16T06:31:17.971Z,13.84
2022-10-16T06:33:46.517Z,13.92
2022-10-16T06:36:15.581Z,13.90
2022-10-16T06:38:42.714Z,13.91
2022-10-16T06:41:12.367Z,13.90
2022-10-16T06:43:38.762Z,13.84
2022-10-16T06:46:08.762Z,13.91
2022-10-16T06:48:35.506Z,13.90
2022-10-16T06:53:49.175Z,13.90
2022-10-16T06:56:27.181Z,13.91
2022-10-16T06:58:54.723Z,13.92
2022-10-16T07:01:23.005Z,13.84
2022-10-16T07:03:49.745Z,13.92
2022-10-16T07:06:20.309Z,13.95
2022-10-16T07:08:48.250Z,13.99
2022-10-16T07:11:17.309Z,13.92
2022-10-16T07:13:48.153Z,13.88
2022-10-16T07:16:20.566Z,13.98
2022-10-16T07:18:49.334Z,13.94
2022-10-16T07:21:21.424Z,14.01
2022-10-16T07:23:52.131Z,14.04
2022-10-16T07:26:18.606Z,14.00
2022-10-16T07:28:45.400Z,14.02
2022-10-16T07:31:16.809Z,14.03
2022-10-16T07:33:45.670Z,14.10
2022-10-16T07:36:16.351Z,14.12
2022-10-16T07:38:43.724Z,14.07
2022-10-16T07:41:12.960Z,14.08
2022-10-16T07:43:39.821Z,14.07
2022-10-16T07:46:06.753Z,14.12
2022-10-16T07:48:35.323Z,14.18
2022-10-16T07:51:03.772Z,14.18
2022-10-16T07:53:30.439Z,14.16
2022-10-16T07:56:05.889Z,14.18
2022-10-16T07:58:33.390Z,14.19
2022-10-16T08:01:03.424Z,14.24
2022-10-16T08:03:29.823Z,14.21
2022-10-16T08:05:58.448Z,14.25
2022-10-16T08:08:25.222Z,14.27
2022-10-16T08:10:51.586Z,14.26
2022-10-16T08:13:18.011Z,14.25
2022-10-16T08:15:45.590Z,14.31
2022-10-16T08:18:13.857Z,14.31
2022-10-16T08:20:41.219Z,14.40
2022-10-16T08:23:07.894Z,14.36
2022-10-16T08:25:38.218Z,14.49
2022-10-16T08:28:10.162Z,14.49
2022-10-16T08:30:37.273Z,14.56
2022-10-16T08:33:04.192Z,14.63
2022-10-16T08:35:30.867Z,14.61
2022-10-16T08:37:57.305Z,14.62
2022-10-16T08:40:31.965Z,14.70
2022-10-16T08:43:13.148Z,14.72
2022-10-16T08:45:39.530Z,14.72
2022-10-16T08:48:21.014Z,14.71
2022-10-16T08:50:50.411Z,14.75
2022-10-16T08:53:44.098Z,14.79
2022-10-16T08:56:10.483Z,14.76
2022-10-16T08:58:36.982Z,14.78
2022-10-16T09:01:11.801Z,14.79
2022-10-16T09:04:15.639Z,14.81
2022-10-16T09:07:10.502Z,14.79
2022-10-16T09:10:18.436Z,14.83
2022-10-16T09:12:54.977Z,14.83
2022-10-16T09:15:30.537Z,14.85
2022-10-16T09:18:11.067Z,14.81
2022-10-16T09:20:50.208Z,14.83
2022-10-16T09:23:26.594Z,14.88
2022-10-16T09:25:54.892Z,14.84
2022-10-16T09:28:21.687Z,14.89
2022-10-16T09:30:51.772Z,14.90
2022-10-16T09:33:21.596Z,14.94
2022-10-16T09:35:53.968Z,15.00
2022-10-16T09:38:31.750Z,15.02
2022-10-16T09:41:03.173Z,15.04
2022-10-16T09:43:39.766Z,15.06
2022-10-16T09:46:08.938Z,15.10
2022-10-16T09:48:40.168Z,15.13
2022-10-16T09:51:17.403Z,15.12
2022-10-16T09:53:48.127Z,15.12
2022-10-16T09:56:36.393Z,15.17
2022-10-16T09:59:28.909Z,15.18
2022-10-16T10:01:56.101Z,15.20
2022-10-16T10:04:24.839Z,15.24
2022-10-16T10:06:59.038Z,15.31
2022-10-16T10:09:33.802Z,15.41
2022-10-16T10:14:41.934Z,15.51
2022-10-16T10:17:20.494Z,15.52
2022-10-16T10:19:56.087Z,15.59
2022-10-16T10:22:32.739Z,15.61
2022-10-16T10:25:30.184Z,15.67
2022-10-16T10:28:19.585Z,15.79
2022-10-16T10:30:58.480Z,16.03
2022-10-16T10:33:37.562Z,16.40
2022-10-16T10:36:23.619Z,16.67
2022-10-16T10:38:59.072Z,16.91
2022-10-16T10:41:58.145Z,17.16
2022-10-16T10:44:24.476Z,17.40
2022-10-16T10:47:09.836Z,17.61
2022-10-16T10:49:39.409Z,17.70
2022-10-16T10:52:28.971Z,17.61
2022-10-16T10:55:09.990Z,17.57
2022-10-16T10:57:50.806Z,17.40
2022-10-16T11:00:37.545Z,17.23
2022-10-16T11:03:28.325Z,17.09
2022-10-16T11:06:05.389Z,16.97
2022-10-16T11:08:40.783Z,16.89
2022-10-16T11:11:15.673Z,16.81
2022-10-16T11:13:56.387Z,16.76
2022-10-16T11:16:29.543Z,16.72
2022-10-16T11:19:26.331Z,16.66
2022-10-16T11:22:20.624Z,16.62
2022-10-16T11:24:53.386Z,16.61
2022-10-16T11:27:29.530Z,16.55
2022-10-16T11:30:02.479Z,16.61
2022-10-16T11:32:34.913Z,16.62
2022-10-16T11:35:13.496Z,16.61
2022-10-16T11:37:45.518Z,16.64
2022-10-16T11:40:29.660Z,16.66
2022-10-16T11:43:07.592Z,16.65
2022-10-16T11:45:43.298Z,16.62
2022-10-16T11:48:15.446Z,16.61
2022-10-16T11:50:50.374Z,16.57
2022-10-16T11:53:45.254Z,16.60
2022-10-16T11:56:17.925Z,16.61
2022-10-16T11:59:25.580Z,16.64
2022-10-16T12:02:00.730Z,16.62
2022-10-16T12:05:08.634Z,16.59
2022-10-16T12:07:44.325Z,16.57
2022-10-16T12:10:23.598Z,16.69
2022-10-16T12:12:53.006Z,16.75
2022-10-16T12:15:54.550Z,16.74
2022-10-16T12:18:25.536Z,16.76
2022-10-16T12:21:17.332Z,16.77
2022-10-16T12:23:53.399Z,16.83
2022-10-16T12:26:28.610Z,16.85
2022-10-16T12:28:56.563Z,16.85
2022-10-16T12:31:24.276Z,16.87
2022-10-16T12:33:59.782Z,16.88
2022-10-16T12:36:32.956Z,16.88
2022-10-16T12:39:00.703Z,16.92
2022-10-16T12:41:32.590Z,16.94
2022-10-16T12:44:02.207Z,16.94
2022-10-16T12:46:31.314Z,16.98
2022-10-16T12:49:14.463Z,17.02
2022-10-16T12:51:42.450Z,17.05
2022-10-16T12:54:16.026Z,17.08
2022-10-16T12:57:07.859Z,17.08
2022-10-16T12:59:54.342Z,17.14
2022-10-16T13:02:57.780Z,17.16
2022-10-16T13:05:53.277Z,17.18
2022-10-16T13:08:46.771Z,17.16
2022-10-16T13:11:37.872Z,17.14
2022-10-16T13:14:26.299Z,17.15
2022-10-16T13:17:13.976Z,17.12
2022-10-16T13:19:56.400Z,17.10
2022-10-16T13:22:35.694Z,17.12
2022-10-16T13:25:09.012Z,17.10
2022-10-16T13:27:52.733Z,17.11
2022-10-16T13:30:29.892Z,17.10
2022-10-16T13:33:41.633Z,17.12
2022-10-16T13:36:18.937Z,17.13
2022-10-16T13:38:45.399Z,17.14
2022-10-16T13:41:19.184Z,17.14
2022-10-16T13:43:52.741Z,17.09
2022-10-16T13:46:24.264Z,17.12
2022-10-16T13:49:25.968Z,17.10
2022-10-16T13:52:00.414Z,17.06
2022-10-16T13:54:29.645Z,17.04
2022-10-16T13:57:03.525Z,16.99
2022-10-16T13:59:38.281Z,17.00
2022-10-16T14:02:37.651Z,16.99
2022-10-16T14:05:08.937Z,16.98
2022-10-16T14:07:35.855Z,16.97
2022-10-16T14:10:08.420Z,16.99
2022-10-16T14:12:35.839Z,17.02
2022-10-16T14:15:02.779Z,17.03
2022-10-16T14:17:34.376Z,17.04
2022-10-16T14:20:06.654Z,17.08
2022-10-16T14:22:42.465Z,17.08
2022-10-16T14:25:21.393Z,17.08
2022-10-16T14:28:20.519Z,17.06
2022-10-16T14:30:53.298Z,17.04
2022-10-16T14:33:34.566Z,17.04
2022-10-16T14:36:03.500Z,17.00
2022-10-16T14:38:30.881Z,16.98
2022-10-16T14:40:59.974Z,16.97
2022-10-16T14:43:36.609Z,16.96
2022-10-16T14:46:10.382Z,16.94
2022-10-16T14:48:37.059Z,16.95
2022-10-16T14:51:03.589Z,16.96
2022-10-16T14:53:30.010Z,16.92
2022-10-16T14:55:56.461Z,16.92
2022-10-16T14:58:24.177Z,16.92
2022-10-16T15:00:50.623Z,16.89
2022-10-16T15:03:17.393Z,16.90
2022-10-16T15:05:44.897Z,16.88
2022-10-16T15:08:13.241Z,16.88
2022-10-16T15:10:43.281Z,16.88
2022-10-16T15:13:14.746Z,16.85
2022-10-16T15:15:46.514Z,16.86
2022-10-16T15:18:15.664Z,16.84
2022-10-16T15:20:42.541Z,16.85
2022-10-16T15:23:18.823Z,16.87
2022-10-16T15:25:46.950Z,16.85
2022-10-16T15:28:14.849Z,16.87
2022-10-16T15:30:42.136Z,16.86
2022-10-16T15:33:17.809Z,16.85
2022-10-16T15:35:48.042Z,16.83
2022-10-16T15:38:15.069Z,16.82
2022-10-16T15:40:42.139Z,16.84
2022-10-16T15:43:08.602Z,16.84
2022-10-16T15:45:35.432Z,16.84
2022-10-16T15:48:01.989Z,16.83
2022-10-16T15:50:28.515Z,16.78
2022-10-16T15:52:54.866Z,16.79
2022-10-16T15:55:21.291Z,16.79
2022-10-16T15:57:47.698Z,16.75
2022-10-16T16:00:17.138Z,16.76
2022-10-16T16:02:44.876Z,16.74
2022-10-16T16:05:12.132Z,16.74
2022-10-16T16:07:41.130Z,16.72
2022-10-16T16:10:11.003Z,16.69
2022-10-16T16:12:38.476Z,16.67
2022-10-16T16:15:09.784Z,16.65
2022-10-16T16:17:37.310Z,16.64
2022-10-16T16:20:05.519Z,16.63
2022-10-16T16:22:32.179Z,16.60
2022-10-16T16:24:58.588Z,16.60
2022-10-16T16:27:26.246Z,16.55
2022-10-16T16:29:54.171Z,16.53
2022-10-16T16:32:20.635Z,16.53
2022-10-16T16:34:47.183Z,16.48
2022-10-16T16:37:13.870Z,16.48
2022-10-16T16:39:40.344Z,16.48
2022-10-16T16:42:08.336Z,16.45
2022-10-16T16:44:37.019Z,16.44
2022-10-16T16:47:04.683Z,16.41
2022-10-16T16:49:31.264Z,16.39
2022-10-16T16:51:57.697Z,16.36
2022-10-16T16:54:24.255Z,16.33
2022-10-16T16:56:50.689Z,16.32
2022-10-16T16:59:20.573Z,16.27
2022-10-16T17:01:48.036Z,16.24
2022-10-16T17:04:19.772Z,16.23
2022-10-16T17:06:53.873Z,16.22
2022-10-16T17:09:20.292Z,16.19
2022-10-16T17:11:47.607Z,16.16
2022-10-16T17:14:13.995Z,16.14
2022-10-16T17:16:44.541Z,16.12
2022-10-16T17:19:15.453Z,16.10
2022-10-16T17:21:42.688Z,16.08
2022-10-16T17:24:10.132Z,16.09
2022-10-16T17:26:38.342Z,16.09
2022-10-16T17:29:05.046Z,16.07
2022-10-16T17:31:36.340Z,16.09
2022-10-16T17:34:05.554Z,16.06
2022-10-16T17:36:34.592Z,16.02
2022-10-16T17:39:04.475Z,16.00
2022-10-16T17:41:31.713Z,16.00
2022-10-16T17:43:58.155Z,15.99
2022-10-16T17:46:25.427Z,15.93
2022-10-16T17:48:55.588Z,15.92
2022-10-16T17:51:25.441Z,15.88
2022-10-16T17:53:54.704Z,15.79
2022-10-16T17:56:22.147Z,15.70
2022-10-16T17:58:54.289Z,15.71
2022-10-16T18:01:24.143Z,15.71
2022-10-16T18:03:52.503Z,15.70
2022-10-16T18:06:22.698Z,15.64
2022-10-16T18:08:50.846Z,15.49
2022-10-16T18:11:17.373Z,15.47
2022-10-16T18:13:44.531Z,15.50
2022-10-16T18:16:12.847Z,15.45
2022-10-16T18:18:41.046Z,15.44
2022-10-16T18:21:09.455Z,15.48
2022-10-16T18:23:36.768Z,15.40
2022-10-16T18:26:05.348Z,15.41
2022-10-16T18:28:32.375Z,15.45
2022-10-16T18:31:06.923Z,15.38
2022-10-16T18:33:33.716Z,15.44
2022-10-16T18:36:05.474Z,15.36
2022-10-16T18:38:32.834Z,15.35
2022-10-16T18:41:01.827Z,15.35
2022-10-16T18:43:30.406Z,15.27
2022-10-16T18:45:58.586Z,15.24
2022-10-16T18:48:25.624Z,15.22
2022-10-16T18:50:52.970Z,15.24
2022-10-16T18:53:19.907Z,15.21
2022-10-16T18:55:53.241Z,15.19
2022-10-16T18:58:20.369Z,15.21
2022-10-16T19:00:47.068Z,15.18
2022-10-16T19:03:13.577Z,15.19
2022-10-16T19:05:40.160Z,15.14
2022-10-16T19:08:06.685Z,15.11
2022-10-16T19:10:36.953Z,15.11
2022-10-16T19:13:06.359Z,15.07
2022-10-16T19:15:42.810Z,14.99
2022-10-16T19:18:11.080Z,15.01
2022-10-16T19:20:37.551Z,15.01
2022-10-16T19:23:04.180Z,15.00
2022-10-16T19:25:30.766Z,14.89
2022-10-16T19:27:57.329Z,14.81
2022-10-16T19:30:25.265Z,14.82
2022-10-16T19:32:53.010Z,14.90
2022-10-16T19:35:19.717Z,14.85
2022-10-16T19:37:50.106Z,14.83
2022-10-16T19:40:16.691Z,14.85
2022-10-16T19:42:45.093Z,14.89
2022-10-16T19:45:12.085Z,14.84
2022-10-16T19:47:38.773Z,14.88
2022-10-16T19:50:06.545Z,14.87
2022-10-16T19:52:33.680Z,14.77
2022-10-16T19:55:00.135Z,14.78
2022-10-16T19:57:27.000Z,14.80
2022-10-16T19:59:54.421Z,14.84
2022-10-16T20:02:21.388Z,14.79
2022-10-16T20:04:47.897Z,14.82
2022-10-16T20:07:15.879Z,14.79
2022-10-16T20:09:42.472Z,14.73
2022-10-16T20:12:08.977Z,14.80
2022-10-16T20:14:35.662Z,14.84
2022-10-16T20:17:02.342Z,14.76
2022-10-16T20:19:28.970Z,14.75
2022-10-16T20:21:55.762Z,14.77
2022-10-16T20:24:22.363Z,14.70
2022-10-16T20:26:48.869Z,14.71
2022-10-16T20:29:15.665Z,14.68
2022-10-16T20:31:42.234Z,14.62
2022-10-16T20:34:11.504Z,14.67
2022-10-16T20:36:42.657Z,14.75
2022-10-16T20:39:09.059Z,14.76
2022-10-16T20:41:36.337Z,14.75
2022-10-16T20:44:03.854Z,14.71
2022-10-16T20:46:30.493Z,14.57
2022-10-16T20:49:06.042Z,14.62
2022-10-16T20:51:38.241Z,14.66
2022-10-16T20:54:06.319Z,14.61
2022-10-16T20:56:35.208Z,14.57
2022-10-16T20:59:02.145Z,14.51
2022-10-16T21:01:29.841Z,14.53
2022-10-16T21:04:02.011Z,14.50
2022-10-16T21:06:29.527Z,14.56
2022-10-16T21:08:56.231Z,14.55
2022-10-16T21:11:27.156Z,14.41
2022-10-16T21:13:56.237Z,14.50
2022-10-16T21:16:23.511Z,14.46
2022-10-16T21:18:50.434Z,14.45
2022-10-16T21:21:26.138Z,14.41
2022-10-16T21:23:53.102Z,14.47
2022-10-16T21:26:25.839Z,14.33
2022-10-16T21:29:00.776Z,14.34
2022-10-16T21:31:27.744Z,14.29
2022-10-16T21:33:55.234Z,14.25
2022-10-16T21:36:26.633Z,14.20
2022-10-16T21:38:53.709Z,14.29
2022-10-16T21:41:26.634Z,14.26
2022-10-16T21:43:54.718Z,14.19
2022-10-16T21:46:25.139Z,14.21
2022-10-16T21:48:55.625Z,14.19
2022-10-16T21:51:27.533Z,14.14
2022-10-16T21:53:54.730Z,13.98
2022-10-16T21:56:21.822Z,14.01
2022-10-16T21:58:48.286Z,14.04
2022-10-16T22:01:19.945Z,13.99
2022-10-16T22:03:47.472Z,14.02
2022-10-16T22:06:16.856Z,13.98
2022-10-16T22:08:43.894Z,13.95
2022-10-16T22:11:23.209Z,13.94
2022-10-16T22:13:54.260Z,13.90
2022-10-16T22:16:25.427Z,13.90
2022-10-16T22:18:53.516Z,13.85
2022-10-16T22:21:20.188Z,13.70
2022-10-16T22:23:46.806Z,13.82
2022-10-16T22:26:13.211Z,13.84
2022-10-16T22:28:40.690Z,13.84
2022-10-16T22:31:10.051Z,13.78
2022-10-16T22:33:36.681Z,13.78
2022-10-16T22:36:05.193Z,13.82
2022-10-16T22:38:33.381Z,13.77
2022-10-16T22:41:05.130Z,13.85
2022-10-16T22:43:34.394Z,13.75
2022-10-16T22:46:05.814Z,13.68
2022-10-16T22:48:32.253Z,13.71
2022-10-16T22:50:58.665Z,13.75
2022-10-16T22:53:25.076Z,13.70
2022-10-16T22:55:51.736Z,13.67
2022-10-16T22:58:18.441Z,13.68
2022-10-16T23:00:45.348Z,13.70
2022-10-16T23:03:12.146Z,13.71
2022-10-16T23:05:40.109Z,13.73
2022-10-16T23:08:07.127Z,13.77
2022-10-16T23:10:34.723Z,13.63
2022-10-16T23:13:01.092Z,13.68
2022-10-16T23:15:27.473Z,13.65
2022-10-16T23:17:53.853Z,13.49
2022-10-16T23:20:20.271Z,13.49
2022-10-16T23:22:46.754Z,13.37
2022-10-16T23:25:13.163Z,13.54
2022-10-16T23:27:39.563Z,13.66
2022-10-16T23:30:06.866Z,13.50
2022-10-16T23:32:34.047Z,13.49
2022-10-16T23:35:00.589Z,13.49
2022-10-16T23:37:27.110Z,13.43
2022-10-16T23:39:54.007Z,13.47
2022-10-16T23:42:20.618Z,13.40
2022-10-16T23:44:47.225Z,13.48
2022-10-16T23:47:13.602Z,13.44
2022-10-16T23:49:39.974Z,13.35
2022-10-16T23:52:07.114Z,13.42
2022-10-16T23:54:33.547Z,13.45
2022-10-16T23:57:00.137Z,13.51
2022-10-16T23:59:26.538Z,13.51
